createdAt,value
2018-02-25T00:00:51.150Z,-1.67
2018-02-25T00:01:51.158Z,-1.59
2018-02-25T00:02:51.176Z,-1.64
2018-02-25T00:03:51.175Z,-1.69
2018-02-25T00:04:51.177Z,-1.76
2018-02-25T00:05:51.192Z,-1.76
2018-02-25T00:06:51.198Z,-1.79
2018-02-25T00:07:51.207Z,-1.80
2018-02-25T00:08:51.210Z,-1.80
2018-02-25T00:09:51.218Z,-1.88
2018-02-25T00:10:51.224Z,-1.79
2018-02-25T00:11:51.230Z,-1.72
2018-02-25T00:13:51.331Z,-1.74
2018-02-25T00:14:51.866Z,-1.70
2018-02-25T00:15:51.263Z,-1.66
2018-02-25T00:16:51.272Z,-1.67
2018-02-25T00:17:51.275Z,-1.73
2018-02-25T00:18:51.284Z,-1.80
2018-02-25T00:19:51.293Z,-1.79
2018-02-25T00:20:51.299Z,-1.70
2018-02-25T00:21:51.309Z,-1.76
2018-02-25T00:22:51.313Z,-1.88
2018-02-25T00:23:51.322Z,-1.91
2018-02-25T00:24:51.348Z,-1.80
2018-02-25T00:25:51.335Z,-1.84
2018-02-25T00:26:51.346Z,-1.82
2018-02-25T00:27:51.351Z,-1.84
2018-02-25T00:28:51.357Z,-1.87
2018-02-25T00:29:51.379Z,-1.80
2018-02-25T00:30:51.373Z,-1.84
2018-02-25T00:31:51.381Z,-1.85
2018-02-25T00:32:51.390Z,-1.80
2018-02-25T00:33:51.397Z,-1.98
2018-02-25T00:34:51.407Z,-1.98
2018-02-25T00:35:51.411Z,-1.94
2018-02-25T00:36:51.434Z,-1.95
2018-02-25T00:37:51.426Z,-1.87
2018-02-25T00:38:51.428Z,-1.87
2018-02-25T00:39:51.440Z,-1.90
2018-02-25T00:40:51.453Z,-1.87
2018-02-25T00:41:51.494Z,-1.91
2018-02-25T00:42:51.562Z,-1.84
2018-02-25T00:43:51.562Z,-1.90
2018-02-25T00:44:51.522Z,-1.88
2018-02-25T00:45:51.484Z,-1.90
2018-02-25T00:46:51.487Z,-1.88
2018-02-25T00:47:51.496Z,-1.87
2018-02-25T00:48:51.505Z,-1.95
2018-02-25T00:49:51.520Z,-1.91
2018-02-25T00:50:51.521Z,-1.91
2018-02-25T00:51:51.540Z,-1.87
2018-02-25T00:52:51.535Z,-1.92
2018-02-25T00:53:51.544Z,-1.97
2018-02-25T00:54:51.557Z,-1.95
2018-02-25T00:55:51.553Z,-1.95
2018-02-25T00:56:51.561Z,-1.97
2018-02-25T00:57:51.568Z,-2.06
2018-02-25T00:58:51.586Z,-1.98
2018-02-25T00:59:51.584Z,-1.97
2018-02-25T01:00:51.592Z,-2.09
2018-02-25T01:01:51.603Z,-2.02
2018-02-25T01:02:51.609Z,-2.12
2018-02-25T01:03:51.612Z,-2.00
2018-02-25T01:04:51.621Z,-2.13
2018-02-25T01:05:51.641Z,-2.12
2018-02-25T01:06:51.650Z,-2.06
2018-02-25T01:07:51.643Z,-2.09
2018-02-25T01:08:51.661Z,-2.10
2018-02-25T01:09:51.658Z,-2.15
2018-02-25T01:10:51.680Z,-2.15
2018-02-25T01:11:51.672Z,-2.20
2018-02-25T01:12:51.895Z,-2.09
2018-02-25T01:13:51.685Z,-2.12
2018-02-25T01:14:51.692Z,-2.12
2018-02-25T01:15:51.701Z,-2.06
2018-02-25T01:16:51.708Z,-2.20
2018-02-25T01:17:51.716Z,-2.09
2018-02-25T01:18:51.723Z,-2.18
2018-02-25T01:19:51.732Z,-2.21
2018-02-25T01:20:51.739Z,-2.21
2018-02-25T01:21:51.749Z,-2.20
2018-02-25T01:22:51.751Z,-2.10
2018-02-25T01:23:51.760Z,-2.18
2018-02-25T01:24:51.757Z,-2.20
2018-02-25T01:25:51.767Z,-2.13
2018-02-25T01:26:51.773Z,-2.18
2018-02-25T01:27:51.780Z,-2.20
2018-02-25T01:28:51.788Z,-2.13
2018-02-25T01:29:51.794Z,-2.15
2018-02-25T01:30:51.802Z,-2.26
2018-02-25T01:31:51.808Z,-2.15
2018-02-25T01:32:51.817Z,-2.24
2018-02-25T01:33:51.822Z,-2.16
2018-02-25T01:34:51.830Z,-2.10
2018-02-25T01:35:51.837Z,-2.26
2018-02-25T01:36:51.844Z,-2.21
2018-02-25T01:37:51.851Z,-2.24
2018-02-25T01:38:51.858Z,-2.21
2018-02-25T01:39:51.867Z,-2.21
2018-02-25T01:40:51.878Z,-2.29
2018-02-25T01:41:51.883Z,-2.24
2018-02-25T01:42:52.038Z,-2.32
2018-02-25T01:43:52.057Z,-2.26
2018-02-25T01:44:51.901Z,-2.39
2018-02-25T01:45:51.909Z,-2.34
2018-02-25T01:46:51.916Z,-2.30
2018-02-25T01:47:51.923Z,-2.34
2018-02-25T01:48:51.929Z,-2.32
2018-02-25T01:49:51.936Z,-2.43
2018-02-25T01:50:51.942Z,-2.32
2018-02-25T01:51:51.950Z,-2.45
2018-02-25T01:52:51.958Z,-2.34
2018-02-25T01:53:51.969Z,-2.50
2018-02-25T01:54:51.972Z,-2.37
2018-02-25T01:55:51.981Z,-2.45
2018-02-25T01:56:51.992Z,-2.40
2018-02-25T01:57:51.994Z,-2.37
2018-02-25T01:58:51.998Z,-2.48
2018-02-25T01:59:52.006Z,-2.39
2018-02-25T02:00:52.014Z,-2.48
2018-02-25T02:01:52.021Z,-2.52
2018-02-25T02:02:52.028Z,-2.50
2018-02-25T02:03:52.036Z,-2.45
2018-02-25T02:04:52.044Z,-2.42
2018-02-25T02:05:52.051Z,-2.46
2018-02-25T02:06:52.059Z,-2.43
2018-02-25T02:07:52.065Z,-2.49
2018-02-25T02:08:52.074Z,-2.52
2018-02-25T02:09:52.091Z,-2.55
2018-02-25T02:10:52.083Z,-2.55
2018-02-25T02:11:52.091Z,-2.48
2018-02-25T02:13:52.575Z,-2.49
2018-02-25T02:14:52.113Z,-2.56
2018-02-25T02:15:52.178Z,-2.60
2018-02-25T02:16:52.127Z,-2.64
2018-02-25T02:17:52.131Z,-2.64
2018-02-25T02:18:52.148Z,-2.56
2018-02-25T02:19:52.147Z,-2.58
2018-02-25T02:20:52.160Z,-2.60
2018-02-25T02:21:52.161Z,-2.66
2018-02-25T02:22:52.169Z,-2.67
2018-02-25T02:23:52.175Z,-2.68
2018-02-25T02:24:52.183Z,-2.58
2018-02-25T02:25:52.189Z,-2.66
2018-02-25T02:26:52.196Z,-2.66
2018-02-25T02:27:52.203Z,-2.73
2018-02-25T02:28:52.211Z,-2.71
2018-02-25T02:29:52.225Z,-2.66
2018-02-25T02:30:52.226Z,-2.56
2018-02-25T02:31:52.232Z,-2.61
2018-02-25T02:32:52.239Z,-2.53
2018-02-25T02:33:52.252Z,-2.61
2018-02-25T02:34:52.254Z,-2.60
2018-02-25T02:35:52.262Z,-2.66
2018-02-25T02:36:52.270Z,-2.63
2018-02-25T02:37:52.278Z,-2.70
2018-02-25T02:38:52.278Z,-2.82
2018-02-25T02:39:52.300Z,-2.64
2018-02-25T02:40:52.300Z,-2.78
2018-02-25T02:41:52.303Z,-2.77
2018-02-25T02:42:52.309Z,-2.77
2018-02-25T02:43:52.419Z,-2.70
2018-02-25T02:44:52.326Z,-2.66
2018-02-25T02:45:52.330Z,-2.79
2018-02-25T02:46:52.340Z,-2.81
2018-02-25T02:47:52.347Z,-2.79
2018-02-25T02:48:52.453Z,-2.81
2018-02-25T02:49:52.360Z,-2.85
2018-02-25T02:50:52.370Z,-2.77
2018-02-25T02:51:52.388Z,-2.73
2018-02-25T02:52:52.381Z,-2.77
2018-02-25T02:53:52.483Z,-2.73
2018-02-25T02:54:52.399Z,-2.70
2018-02-25T02:55:52.407Z,-2.78
2018-02-25T02:56:52.407Z,-2.86
2018-02-25T02:57:52.413Z,-2.86
2018-02-25T02:58:52.420Z,-2.85
2018-02-25T02:59:52.433Z,-2.84
2018-02-25T03:00:52.436Z,-2.79
2018-02-25T03:01:52.454Z,-2.79
2018-02-25T03:02:52.446Z,-2.74
2018-02-25T03:03:52.458Z,-2.82
2018-02-25T03:04:52.462Z,-2.81
2018-02-25T03:05:52.467Z,-2.86
2018-02-25T03:06:52.479Z,-2.85
2018-02-25T03:07:52.482Z,-2.86
2018-02-25T03:08:52.497Z,-2.91
2018-02-25T03:09:52.496Z,-2.89
2018-02-25T03:10:52.504Z,-2.94
2018-02-25T03:11:52.514Z,-2.96
2018-02-25T03:12:52.519Z,-2.86
2018-02-25T03:13:52.525Z,-2.91
2018-02-25T03:14:52.570Z,-2.94
2018-02-25T03:15:52.542Z,-2.91
2018-02-25T03:16:52.668Z,-3.00
2018-02-25T03:17:52.553Z,-2.92
2018-02-25T03:18:52.559Z,-2.99
2018-02-25T03:19:52.565Z,-3.00
2018-02-25T03:20:52.573Z,-2.97
2018-02-25T03:21:52.587Z,-2.94
2018-02-25T03:22:52.586Z,-2.91
2018-02-25T03:23:52.594Z,-3.02
2018-02-25T03:24:52.599Z,-2.92
2018-02-25T03:25:52.607Z,-2.99
2018-02-25T03:26:52.633Z,-3.03
2018-02-25T03:27:52.621Z,-2.99
2018-02-25T03:28:52.629Z,-2.99
2018-02-25T03:29:52.636Z,-2.97
2018-02-25T03:30:52.643Z,-3.00
2018-02-25T03:31:52.649Z,-3.02
2018-02-25T03:32:52.657Z,-3.00
2018-02-25T03:33:52.667Z,-2.89
2018-02-25T03:34:52.671Z,-2.92
2018-02-25T03:35:52.676Z,-2.94
2018-02-25T03:36:52.684Z,-2.91
2018-02-25T03:37:52.696Z,-2.94
2018-02-25T03:38:52.696Z,-2.94
2018-02-25T03:39:52.706Z,-2.92
2018-02-25T03:40:52.716Z,-3.05
2018-02-25T03:41:52.719Z,-3.12
2018-02-25T03:42:52.780Z,-3.02
2018-02-25T03:43:52.730Z,-2.92
2018-02-25T03:44:52.738Z,-3.00
2018-02-25T03:45:52.747Z,-3.07
2018-02-25T03:46:52.751Z,-3.06
2018-02-25T03:47:52.781Z,-2.96
2018-02-25T03:48:52.769Z,-3.17
2018-02-25T03:49:52.774Z,-3.09
2018-02-25T03:50:53.016Z,-3.17
2018-02-25T03:51:53.060Z,-3.18
2018-02-25T03:52:52.793Z,-3.17
2018-02-25T03:53:52.799Z,-3.14
2018-02-25T03:54:52.814Z,-3.12
2018-02-25T03:55:52.816Z,-3.09
2018-02-25T03:56:52.843Z,-3.09
2018-02-25T03:57:52.826Z,-3.18
2018-02-25T03:58:52.836Z,-3.30
2018-02-25T03:59:52.842Z,-3.35
2018-02-25T04:00:52.854Z,-3.36
2018-02-25T04:01:52.858Z,-3.27
2018-02-25T04:02:52.875Z,-3.30
2018-02-25T04:03:52.870Z,-3.28
2018-02-25T04:04:52.876Z,-3.25
2018-02-25T04:05:52.884Z,-3.30
2018-02-25T04:06:52.895Z,-3.42
2018-02-25T04:07:52.896Z,-3.38
2018-02-25T04:08:52.912Z,-3.41
2018-02-25T04:09:52.910Z,-3.36
2018-02-25T04:10:52.923Z,-3.36
2018-02-25T04:11:52.929Z,-3.39
2018-02-25T04:12:52.934Z,-3.41
2018-02-25T04:13:52.941Z,-3.36
2018-02-25T04:14:52.949Z,-3.43
2018-02-25T04:15:52.961Z,-3.39
2018-02-25T04:16:52.962Z,-3.41
2018-02-25T04:17:53.012Z,-3.38
2018-02-25T04:18:52.973Z,-3.41
2018-02-25T04:19:52.981Z,-3.41
2018-02-25T04:20:52.990Z,-3.33
2018-02-25T04:21:53.328Z,-3.43
2018-02-25T04:22:53.004Z,-3.43
2018-02-25T04:23:53.009Z,-3.46
2018-02-25T04:24:53.021Z,-3.49
2018-02-25T04:25:53.026Z,-3.43
2018-02-25T04:26:53.034Z,-3.49
2018-02-25T04:27:53.039Z,-3.48
2018-02-25T04:28:53.048Z,-3.49
2018-02-25T04:29:53.060Z,-3.57
2018-02-25T04:30:53.056Z,-3.64
2018-02-25T04:31:53.071Z,-3.54
2018-02-25T04:32:53.074Z,-3.60
2018-02-25T04:33:53.076Z,-3.56
2018-02-25T04:34:53.082Z,-3.63
2018-02-25T04:35:53.095Z,-3.60
2018-02-25T04:36:53.098Z,-3.63
2018-02-25T04:37:53.107Z,-3.59
2018-02-25T04:38:53.109Z,-3.60
2018-02-25T04:39:53.118Z,-3.62
2018-02-25T04:40:53.132Z,-3.78
2018-02-25T04:41:53.137Z,-3.72
2018-02-25T04:42:53.153Z,-3.66
2018-02-25T04:43:53.147Z,-3.63
2018-02-25T04:44:53.152Z,-3.64
2018-02-25T04:45:53.160Z,-3.71
2018-02-25T04:46:53.163Z,-3.64
2018-02-25T04:47:53.171Z,-3.71
2018-02-25T04:48:53.177Z,-3.71
2018-02-25T04:49:53.189Z,-3.72
2018-02-25T04:51:53.460Z,-3.66
2018-02-25T04:52:53.209Z,-3.69
2018-02-25T04:53:53.212Z,-3.72
2018-02-25T04:54:53.216Z,-3.71
2018-02-25T04:55:53.224Z,-3.72
2018-02-25T04:56:53.231Z,-3.62
2018-02-25T04:57:53.241Z,-3.72
2018-02-25T04:58:53.246Z,-3.78
2018-02-25T04:59:53.252Z,-3.78
2018-02-25T05:00:53.261Z,-3.75
2018-02-25T05:01:53.266Z,-3.79
2018-02-25T05:02:53.272Z,-3.82
2018-02-25T05:03:53.279Z,-3.86
2018-02-25T05:04:53.284Z,-3.86
2018-02-25T05:05:53.291Z,-3.93
2018-02-25T05:06:53.303Z,-3.85
2018-02-25T05:07:53.304Z,-3.78
2018-02-25T05:08:53.317Z,-3.79
2018-02-25T05:09:53.325Z,-3.64
2018-02-25T05:10:53.332Z,-3.67
2018-02-25T05:11:53.332Z,-3.75
2018-02-25T05:12:53.644Z,-3.76
2018-02-25T05:13:53.345Z,-3.76
2018-02-25T05:14:53.354Z,-3.69
2018-02-25T05:15:53.359Z,-3.71
2018-02-25T05:16:53.363Z,-3.75
2018-02-25T05:17:53.385Z,-3.78
2018-02-25T05:18:53.378Z,-3.76
2018-02-25T05:19:53.386Z,-3.85
2018-02-25T05:20:53.395Z,-3.90
2018-02-25T05:21:53.397Z,-3.82
2018-02-25T05:22:53.406Z,-3.85
2018-02-25T05:23:53.416Z,-3.97
2018-02-25T05:24:53.422Z,-3.99
2018-02-25T05:25:53.429Z,-3.91
2018-02-25T05:26:54.137Z,-3.91
2018-02-25T05:27:53.531Z,-3.91
2018-02-25T05:28:53.445Z,-3.94
2018-02-25T05:29:53.451Z,-3.93
2018-02-25T05:30:53.461Z,-3.99
2018-02-25T05:31:53.470Z,-3.97
2018-02-25T05:32:53.486Z,-3.96
2018-02-25T05:33:53.483Z,-4.03
2018-02-25T05:34:53.484Z,-3.96
2018-02-25T05:35:53.495Z,-3.93
2018-02-25T05:36:53.500Z,-3.97
2018-02-25T05:37:53.505Z,-3.93
2018-02-25T05:38:53.512Z,-3.91
2018-02-25T05:39:53.519Z,-3.90
2018-02-25T05:40:53.524Z,-3.86
2018-02-25T05:41:53.530Z,-3.94
2018-02-25T05:42:53.543Z,-3.86
2018-02-25T05:43:53.549Z,-3.85
2018-02-25T05:44:53.550Z,-3.97
2018-02-25T05:45:53.554Z,-3.88
2018-02-25T05:46:53.566Z,-3.83
2018-02-25T05:47:53.572Z,-3.96
2018-02-25T05:48:53.576Z,-3.91
2018-02-25T05:49:53.586Z,-3.99
2018-02-25T05:50:53.588Z,-3.96
2018-02-25T05:51:53.598Z,-3.97
2018-02-25T05:52:53.604Z,-3.90
2018-02-25T05:53:53.618Z,-3.97
2018-02-25T05:54:53.625Z,-4.00
2018-02-25T05:55:53.622Z,-4.04
2018-02-25T05:56:53.630Z,-3.97
2018-02-25T05:57:53.798Z,-4.06
2018-02-25T05:58:53.896Z,-4.07
2018-02-25T05:59:53.721Z,-4.03
2018-02-25T06:00:53.659Z,-4.06
2018-02-25T06:01:53.662Z,-4.06
2018-02-25T06:02:53.671Z,-4.04
2018-02-25T06:03:53.675Z,-4.07
2018-02-25T06:04:53.680Z,-4.04
2018-02-25T06:05:53.688Z,-4.11
2018-02-25T06:06:53.698Z,-4.15
2018-02-25T06:07:53.707Z,-4.12
2018-02-25T06:08:53.717Z,-4.07
2018-02-25T06:09:53.714Z,-4.14
2018-02-25T06:10:53.720Z,-4.17
2018-02-25T06:11:53.728Z,-4.12
2018-02-25T06:12:53.735Z,-4.01
2018-02-25T06:13:53.739Z,-4.04
2018-02-25T06:14:53.746Z,-4.10
2018-02-25T06:15:53.757Z,-4.06
2018-02-25T06:16:53.764Z,-4.06
2018-02-25T06:17:53.767Z,-4.07
2018-02-25T06:18:53.772Z,-4.12
2018-02-25T06:19:53.783Z,-4.21
2018-02-25T06:20:53.788Z,-4.18
2018-02-25T06:21:53.794Z,-4.17
2018-02-25T06:22:53.798Z,-4.18
2018-02-25T06:23:53.807Z,-4.20
2018-02-25T06:24:53.822Z,-4.20
2018-02-25T06:25:53.923Z,-4.20
2018-02-25T06:28:53.887Z,-4.21
2018-02-25T06:29:53.845Z,-4.15
2018-02-25T06:30:53.849Z,-4.15
2018-02-25T06:31:53.858Z,-4.17
2018-02-25T06:32:53.863Z,-4.18
2018-02-25T06:33:53.871Z,-4.18
2018-02-25T06:34:53.877Z,-4.18
2018-02-25T06:35:53.899Z,-4.12
2018-02-25T06:36:53.891Z,-4.14
2018-02-25T06:37:53.899Z,-4.17
2018-02-25T06:38:53.908Z,-4.10
2018-02-25T06:39:53.912Z,-4.06
2018-02-25T06:40:53.921Z,-4.10
2018-02-25T06:41:53.923Z,-4.04
2018-02-25T06:42:53.928Z,-4.12
2018-02-25T06:43:53.940Z,-4.12
2018-02-25T06:44:53.944Z,-4.03
2018-02-25T06:45:53.947Z,-4.11
2018-02-25T06:46:53.953Z,-4.03
2018-02-25T06:47:54.021Z,-4.11
2018-02-25T06:48:53.968Z,-4.03
2018-02-25T06:49:53.992Z,-4.06
2018-02-25T06:50:53.978Z,-4.14
2018-02-25T06:51:53.988Z,-4.12
2018-02-25T06:52:54.005Z,-4.07
2018-02-25T06:53:54.002Z,-4.06
2018-02-25T06:54:54.008Z,-4.07
2018-02-25T06:55:54.014Z,-4.04
2018-02-25T06:56:54.019Z,-4.15
2018-02-25T06:57:54.190Z,-4.07
2018-02-25T06:58:54.294Z,-4.12
2018-02-25T06:59:54.057Z,-4.15
2018-02-25T07:00:54.046Z,-4.15
2018-02-25T07:01:54.060Z,-4.06
2018-02-25T07:02:54.077Z,-4.01
2018-02-25T07:03:54.070Z,-3.99
2018-02-25T07:04:54.070Z,-3.94
2018-02-25T07:05:54.086Z,-3.97
2018-02-25T07:06:54.082Z,-3.94
2018-02-25T07:07:54.094Z,-3.96
2018-02-25T07:08:54.102Z,-3.96
2018-02-25T07:09:54.107Z,-4.04
2018-02-25T07:10:54.110Z,-4.07
2018-02-25T07:11:54.121Z,-4.04
2018-02-25T07:12:54.123Z,-4.07
2018-02-25T07:13:54.128Z,-3.97
2018-02-25T07:14:54.142Z,-4.03
2018-02-25T07:15:54.144Z,-4.07
2018-02-25T07:16:54.151Z,-3.96
2018-02-25T07:17:54.157Z,-3.96
2018-02-25T07:18:54.165Z,-3.93
2018-02-25T07:19:54.169Z,-3.88
2018-02-25T07:20:54.176Z,-3.88
2018-02-25T07:21:54.181Z,-3.82
2018-02-25T07:22:54.189Z,-3.72
2018-02-25T07:23:54.201Z,-3.75
2018-02-25T07:24:54.204Z,-3.76
2018-02-25T07:25:54.216Z,-3.82
2018-02-25T07:26:54.271Z,-3.78
2018-02-25T07:27:54.327Z,-3.75
2018-02-25T07:28:54.350Z,-3.76
2018-02-25T07:29:54.240Z,-3.81
2018-02-25T07:30:54.243Z,-3.78
2018-02-25T07:31:54.249Z,-3.78
2018-02-25T07:32:54.256Z,-3.69
2018-02-25T07:33:54.272Z,-3.69
2018-02-25T07:34:54.269Z,-3.78
2018-02-25T07:35:54.286Z,-3.69
2018-02-25T07:36:54.309Z,-3.64
2018-02-25T07:37:54.288Z,-3.63
2018-02-25T07:38:54.396Z,-3.62
2018-02-25T07:39:54.405Z,-3.59
2018-02-25T07:40:54.314Z,-3.52
2018-02-25T07:41:54.316Z,-3.63
2018-02-25T07:42:54.326Z,-3.63
2018-02-25T07:43:54.330Z,-3.62
2018-02-25T07:44:54.343Z,-3.62
2018-02-25T07:45:54.344Z,-3.66
2018-02-25T07:46:54.351Z,-3.64
2018-02-25T07:47:54.356Z,-3.57
2018-02-25T07:48:54.363Z,-3.57
2018-02-25T07:49:54.382Z,-3.54
2018-02-25T07:50:54.376Z,-3.63
2018-02-25T07:51:54.384Z,-3.62
2018-02-25T07:52:54.391Z,-3.56
2018-02-25T07:53:54.396Z,-3.45
2018-02-25T07:54:54.411Z,-3.53
2018-02-25T07:55:54.415Z,-3.41
2018-02-25T07:56:54.422Z,-3.39
2018-02-25T07:59:55.062Z,-3.31
2018-02-25T08:00:54.442Z,-3.21
2018-02-25T08:01:54.451Z,-3.15
2018-02-25T08:02:54.459Z,-3.18
2018-02-25T08:03:54.465Z,-3.33
2018-02-25T08:04:54.470Z,-3.24
2018-02-25T08:05:54.494Z,-3.20
2018-02-25T08:06:54.486Z,-3.10
2018-02-25T08:07:54.492Z,-3.06
2018-02-25T08:08:54.499Z,-3.12
2018-02-25T08:09:54.508Z,-2.96
2018-02-25T08:10:54.515Z,-2.94
2018-02-25T08:11:54.520Z,-2.94
2018-02-25T08:12:54.528Z,-2.92
2018-02-25T08:13:54.536Z,-2.88
2018-02-25T08:14:54.543Z,-2.92
2018-02-25T08:15:54.546Z,-2.94
2018-02-25T08:16:54.555Z,-2.97
2018-02-25T08:17:54.562Z,-3.03
2018-02-25T08:18:54.568Z,-2.99
2018-02-25T08:19:54.586Z,-2.92
2018-02-25T08:20:54.580Z,-2.99
2018-02-25T08:21:54.592Z,-2.92
2018-02-25T08:22:54.596Z,-3.09
2018-02-25T08:23:54.605Z,-3.10
2018-02-25T08:24:54.615Z,-3.14
2018-02-25T08:25:54.619Z,-3.10
2018-02-25T08:26:54.620Z,-3.07
2018-02-25T08:27:54.635Z,-3.12
2018-02-25T08:28:54.697Z,-3.17
2018-02-25T08:29:54.691Z,-3.14
2018-02-25T08:30:54.690Z,-3.17
2018-02-25T08:31:54.668Z,-3.17
2018-02-25T08:32:54.676Z,-3.18
2018-02-25T08:33:54.682Z,-3.17
2018-02-25T08:34:54.685Z,-2.94
2018-02-25T08:35:54.686Z,-3.05
2018-02-25T08:36:54.690Z,-2.89
2018-02-25T08:37:54.719Z,-2.89
2018-02-25T08:38:54.708Z,-2.94
2018-02-25T08:39:54.709Z,-2.84
2018-02-25T08:40:54.717Z,-2.84
2018-02-25T08:41:54.739Z,-2.82
2018-02-25T08:42:54.733Z,-2.94
2018-02-25T08:43:54.740Z,-2.89
2018-02-25T08:44:54.747Z,-2.82
2018-02-25T08:45:54.753Z,-2.85
2018-02-25T08:46:54.762Z,-2.78
2018-02-25T08:47:54.766Z,-2.78
2018-02-25T08:48:54.773Z,-2.84
2018-02-25T08:49:54.779Z,-2.70
2018-02-25T08:50:54.793Z,-2.82
2018-02-25T08:51:54.800Z,-2.77
2018-02-25T08:52:54.804Z,-2.78
2018-02-25T08:53:54.809Z,-2.68
2018-02-25T08:54:54.816Z,-2.58
2018-02-25T08:56:54.841Z,-2.52
2018-02-25T08:57:54.842Z,-2.52
2018-02-25T08:58:54.856Z,-2.53
2018-02-25T08:59:54.952Z,-2.50
2018-02-25T09:00:54.982Z,-2.49
2018-02-25T09:01:54.890Z,-2.49
2018-02-25T09:02:54.906Z,-2.52
2018-02-25T09:03:54.895Z,-2.45
2018-02-25T09:04:54.889Z,-2.37
2018-02-25T09:05:54.900Z,-2.40
2018-02-25T09:06:54.901Z,-2.43
2018-02-25T09:07:54.914Z,-2.37
2018-02-25T09:08:54.917Z,-2.39
2018-02-25T09:09:55.023Z,-2.34
2018-02-25T09:10:54.932Z,-2.48
2018-02-25T09:11:54.941Z,-2.45
2018-02-25T09:12:54.946Z,-2.39
2018-02-25T09:13:54.953Z,-2.30
2018-02-25T09:14:54.961Z,-2.37
2018-02-25T09:15:54.969Z,-2.27
2018-02-25T09:16:54.978Z,-2.23
2018-02-25T09:17:54.989Z,-2.12
2018-02-25T09:18:54.990Z,-2.16
2018-02-25T09:19:55.004Z,-2.15
2018-02-25T09:20:55.012Z,-2.18
2018-02-25T09:21:55.013Z,-2.10
2018-02-25T09:22:55.026Z,-2.12
2018-02-25T09:23:55.041Z,-2.02
2018-02-25T09:24:55.036Z,-1.98
2018-02-25T09:25:55.056Z,-1.98
2018-02-25T09:26:55.051Z,-1.97
2018-02-25T09:27:55.055Z,-1.98
2018-02-25T09:28:55.064Z,-1.91
2018-02-25T09:29:55.073Z,-1.94
2018-02-25T09:30:55.079Z,-1.94
2018-02-25T09:31:55.086Z,-1.90
2018-02-25T09:32:55.345Z,-1.94
2018-02-25T09:33:55.155Z,-1.94
2018-02-25T09:34:55.454Z,-1.84
2018-02-25T09:35:55.168Z,-1.76
2018-02-25T09:36:55.121Z,-1.79
2018-02-25T09:37:55.146Z,-1.85
2018-02-25T09:38:55.139Z,-1.72
2018-02-25T09:39:55.146Z,-1.85
2018-02-25T09:40:55.155Z,-1.80
2018-02-25T09:41:55.166Z,-1.91
2018-02-25T09:42:55.175Z,-1.76
2018-02-25T09:43:55.177Z,-1.77
2018-02-25T09:44:55.191Z,-1.74
2018-02-25T09:45:55.188Z,-1.66
2018-02-25T09:46:55.201Z,-1.69
2018-02-25T09:47:55.210Z,-1.72
2018-02-25T09:48:55.212Z,-1.67
2018-02-25T09:49:55.242Z,-1.61
2018-02-25T09:50:55.235Z,-1.49
2018-02-25T09:51:55.267Z,-1.55
2018-02-25T09:52:55.257Z,-1.38
2018-02-25T09:53:55.279Z,-1.31
2018-02-25T09:54:55.256Z,-1.30
2018-02-25T09:55:55.289Z,-1.33
2018-02-25T09:56:55.274Z,-1.30
2018-02-25T09:57:55.282Z,-1.28
2018-02-25T09:58:55.286Z,-1.31
2018-02-25T09:59:55.294Z,-1.31
2018-02-25T10:00:55.302Z,-1.12
2018-02-25T10:01:55.307Z,-1.17
2018-02-25T10:02:55.309Z,-1.13
2018-02-25T10:03:55.321Z,-1.13
2018-02-25T10:04:55.325Z,-1.12
2018-02-25T10:05:55.334Z,-1.16
2018-02-25T10:06:55.353Z,-1.12
2018-02-25T10:07:55.463Z,-1.13
2018-02-25T10:08:55.756Z,-1.07
2018-02-25T10:09:55.371Z,-0.86
2018-02-25T10:10:55.390Z,-0.94
2018-02-25T10:11:55.392Z,-0.94
2018-02-25T10:12:55.391Z,-0.91
2018-02-25T10:13:55.416Z,-0.97
2018-02-25T10:14:55.405Z,-0.92
2018-02-25T10:15:55.415Z,-0.94
2018-02-25T10:16:55.417Z,-0.85
2018-02-25T10:17:55.424Z,-0.80
2018-02-25T10:18:55.439Z,-0.80
2018-02-25T10:19:55.443Z,-0.78
2018-02-25T10:20:55.450Z,-0.91
2018-02-25T10:21:55.505Z,-0.89
2018-02-25T10:22:55.463Z,-0.82
2018-02-25T10:23:55.472Z,-0.75
2018-02-25T10:24:55.481Z,-0.76
2018-02-25T10:25:55.486Z,-0.73
2018-02-25T10:26:55.505Z,-0.94
2018-02-25T10:27:55.509Z,-0.98
2018-02-25T10:28:55.509Z,-0.80
2018-02-25T10:29:55.519Z,-0.86
2018-02-25T10:30:55.780Z,-0.85
2018-02-25T10:31:55.556Z,-0.92
2018-02-25T10:32:55.542Z,-0.89
2018-02-25T10:33:55.549Z,-0.73
2018-02-25T10:34:55.559Z,-0.78
2018-02-25T10:35:55.569Z,-0.75
2018-02-25T10:36:55.577Z,-0.76
2018-02-25T10:37:55.585Z,-0.73
2018-02-25T10:38:55.594Z,-0.67
2018-02-25T10:39:55.712Z,-0.49
2018-02-25T10:40:56.132Z,-0.33
2018-02-25T10:41:55.614Z,-0.47
2018-02-25T10:42:55.620Z,-0.44
2018-02-25T10:43:55.631Z,-0.34
2018-02-25T10:44:55.639Z,-0.40
2018-02-25T10:45:55.645Z,-0.36
2018-02-25T10:46:55.657Z,-0.51
2018-02-25T10:47:55.663Z,-0.57
2018-02-25T10:48:55.672Z,-0.40
2018-02-25T10:49:55.676Z,-0.51
2018-02-25T10:50:55.685Z,-0.47
2018-02-25T10:51:55.695Z,-0.44
2018-02-25T10:52:55.707Z,-0.43
2018-02-25T10:53:55.708Z,-0.33
2018-02-25T10:54:55.716Z,-0.22
2018-02-25T10:55:55.727Z,-0.05
2018-02-25T10:56:55.743Z,-0.04
2018-02-25T10:57:55.750Z,0.08
2018-02-25T10:58:55.749Z,0.00
2018-02-25T10:59:55.771Z,-0.04
2018-02-25T11:00:55.766Z,-0.05
2018-02-25T11:01:55.773Z,-0.04
2018-02-25T11:02:55.782Z,-0.01
2018-02-25T11:03:55.790Z,0.00
2018-02-25T11:04:55.800Z,0.10
2018-02-25T11:05:55.807Z,0.08
2018-02-25T11:06:55.818Z,0.13
2018-02-25T11:07:55.823Z,-0.01
2018-02-25T11:08:55.832Z,-0.10
2018-02-25T11:10:56.097Z,-0.07
2018-02-25T11:11:56.060Z,0.11
2018-02-25T11:12:55.864Z,0.03
2018-02-25T11:13:55.893Z,0.04
2018-02-25T11:14:55.923Z,0.14
2018-02-25T11:15:55.924Z,0.18
2018-02-25T11:16:55.941Z,0.17
2018-02-25T11:17:55.910Z,0.26
2018-02-25T11:18:55.916Z,0.23
2018-02-25T11:19:55.926Z,0.08
2018-02-25T11:20:55.936Z,0.11
2018-02-25T11:21:55.944Z,0.10
2018-02-25T11:22:56.008Z,0.14
2018-02-25T11:23:55.959Z,0.24
2018-02-25T11:24:55.969Z,0.10
2018-02-25T11:25:55.974Z,0.14
2018-02-25T11:26:55.983Z,0.26
2018-02-25T11:27:55.992Z,0.13
2018-02-25T11:28:55.999Z,0.21
2018-02-25T11:29:56.007Z,0.23
2018-02-25T11:30:56.018Z,0.31
2018-02-25T11:31:56.029Z,0.38
2018-02-25T11:32:56.035Z,0.49
2018-02-25T11:33:56.043Z,0.51
2018-02-25T11:34:56.058Z,0.42
2018-02-25T11:35:56.059Z,0.24
2018-02-25T11:36:56.066Z,0.29
2018-02-25T11:37:56.078Z,0.28
2018-02-25T11:38:56.131Z,0.23
2018-02-25T11:39:56.092Z,0.28
2018-02-25T11:40:56.103Z,0.32
2018-02-25T11:42:56.384Z,0.50
2018-02-25T11:43:56.473Z,0.66
2018-02-25T11:44:56.135Z,0.70
2018-02-25T11:45:56.155Z,0.66
2018-02-25T11:46:56.161Z,0.62
2018-02-25T11:47:56.171Z,0.69
2018-02-25T11:48:56.168Z,0.73
2018-02-25T11:49:56.177Z,0.79
2018-02-25T11:50:56.190Z,0.72
2018-02-25T11:51:56.199Z,0.65
2018-02-25T11:52:56.206Z,0.72
2018-02-25T11:53:56.216Z,0.73
2018-02-25T11:54:56.221Z,0.72
2018-02-25T11:55:56.231Z,0.65
2018-02-25T11:56:56.253Z,0.60
2018-02-25T11:57:56.250Z,0.66
2018-02-25T11:58:56.263Z,0.66
2018-02-25T11:59:56.270Z,0.73
2018-02-25T12:00:56.275Z,0.51
2018-02-25T12:01:56.294Z,0.57
2018-02-25T12:02:56.294Z,0.50
2018-02-25T12:03:56.322Z,0.60
2018-02-25T12:04:56.503Z,0.69
2018-02-25T12:05:56.368Z,0.69
2018-02-25T12:06:56.526Z,0.75
2018-02-25T12:07:56.346Z,0.72
2018-02-25T12:08:56.350Z,0.68
2018-02-25T12:09:56.354Z,0.86
2018-02-25T12:10:56.368Z,0.90
2018-02-25T12:11:56.377Z,0.88
2018-02-25T12:12:56.393Z,0.78
2018-02-25T12:13:56.390Z,0.69
2018-02-25T12:14:59.551Z,0.72
2018-02-25T12:15:56.409Z,0.76
2018-02-25T12:16:56.428Z,0.61
2018-02-25T12:17:56.428Z,0.69
2018-02-25T12:18:56.434Z,0.72
2018-02-25T12:19:56.444Z,0.78
2018-02-25T12:20:56.452Z,0.88
2018-02-25T12:21:56.470Z,1.02
2018-02-25T12:22:56.469Z,1.14
2018-02-25T12:23:56.479Z,1.14
2018-02-25T12:24:56.491Z,1.20
2018-02-25T12:25:56.511Z,1.06
2018-02-25T12:26:56.511Z,1.06
2018-02-25T12:27:56.515Z,1.06
2018-02-25T12:28:56.531Z,0.94
2018-02-25T12:29:56.531Z,0.88
2018-02-25T12:30:56.579Z,0.78
2018-02-25T12:31:56.562Z,0.80
2018-02-25T12:32:56.565Z,0.78
2018-02-25T12:33:56.567Z,0.78
2018-02-25T12:34:56.580Z,0.73
2018-02-25T12:35:56.585Z,0.69
2018-02-25T12:36:56.599Z,0.76
2018-02-25T12:37:56.602Z,0.91
2018-02-25T12:38:56.613Z,0.96
2018-02-25T12:39:56.618Z,1.06
2018-02-25T12:40:56.629Z,0.91
2018-02-25T12:41:56.638Z,0.88
2018-02-25T12:42:56.651Z,0.90
2018-02-25T12:43:56.809Z,1.02
2018-02-25T12:44:56.775Z,1.05
2018-02-25T12:45:56.688Z,0.98
2018-02-25T12:46:56.684Z,1.05
2018-02-25T12:47:56.699Z,1.27
2018-02-25T12:48:56.704Z,1.33
2018-02-25T12:49:56.713Z,1.11
2018-02-25T12:50:56.719Z,1.08
2018-02-25T12:51:56.727Z,0.90
2018-02-25T12:52:56.791Z,0.88
2018-02-25T12:53:56.744Z,0.78
2018-02-25T12:54:56.757Z,0.76
2018-02-25T12:55:56.762Z,0.79
2018-02-25T12:56:56.775Z,0.80
2018-02-25T12:57:56.778Z,0.78
2018-02-25T12:58:56.788Z,0.91
2018-02-25T12:59:56.795Z,0.96
2018-02-25T13:00:56.909Z,1.04
2018-02-25T13:01:56.827Z,1.11
2018-02-25T13:02:56.837Z,1.05
2018-02-25T13:03:56.834Z,0.94
2018-02-25T13:04:56.845Z,0.93
2018-02-25T13:05:56.853Z,0.91
2018-02-25T13:06:56.871Z,1.04